LTAU/ASR METAR and TAF weather

Enter ICAO airport designator
Station Type Date Time Source
LTAU METAR 2020/10/20 17:50 UTC NOAA

LTAU 201750Z VRB02KT 9999 SCT040 11/07 Q1022 NOSIG


Station Type Date Time Source
LTAU Decoded METAR 2020/10/20 17:50 UTC NOAA

Kayseri / Erkilet, Turkey (LTAU) 38-47N 035-29E 1054M
Oct 20, 2020 - 01:50 PM EDT / 2020.10.20 1750 UTC
Wind: Variable at 2 MPH (2 KT):0
Visibility: greater than 7 mile(s):0
Sky conditions: partly cloudy
Temperature: 51 F (11 C)
Dew Point: 44 F (7 C)
Relative Humidity: 76%
Pressure (altimeter): 30.18 in. Hg (1022 hPa)
ob: LTAU 201750Z VRB02KT 9999 SCT040 11/07 Q1022 NOSIG
cycle: 18

Station Type Date Time Source
LTAU TAF 2020/10/20 18:03 UTC NOAA

TAF LTAU 201640Z 2018/2118 VRB02KT 9999 SCT040
BECMG 2020/2022 06012KT

Example: see airport list